Αναφορές METAR

 

LGKZ - Kozani (civ/Army, Greece
Distance from station: ΝΔ 41km
Ενημερώθηκε: 20/02/2018 06:50
Mist, Συννεφιά
Mist, Συννεφιά
 Ανεμος από calm
Ανεμος: Απνοια
Θερμοκρασία: 4°C
Σημείο Δρόσου: 3°C
Υγρασία: 93%
Βαρόμετρο: 1013 hPa
Περίληψη: Mist
Clouds: Συννεφιά
Visibility: 5 km
Cloud details: Few Clouds 152 m
Σχεδόν νεφελώδης 610 m
Συννεφιά 2134 m
2018/02/20 04:50 LGKZ 200450Z 00000KT 5000 BR FEW005 BKN020 OVC070 04/03 Q1013
LGTS - Thessaloniki/Mik, Greece
Distance from station: Α 64km
Ενημερώθηκε: 20/02/2018 07:20
Μερικώς νεφελώδης
Μερικώς νεφελώδης
 Ανεμος από ΑΝΑ
Ανεμος: ΑΝΑ 9 km/h
Θερμοκρασία: 8°C
Wind Chill: 6°C
Σημείο Δρόσου: 0°C
Υγρασία: 57%
Βαρόμετρο: 1015 hPa
Clouds: Μερικώς νεφελώδης
Visibility: 10 km
Cloud details: Few Clouds 305 m
Μερικώς νεφελώδης 762 m
2018/02/20 05:20 LGTS 200520Z 11005KT 9999 FEW010 SCT025 08/00 Q1015 NOSIG
 
LGIO - Ioannina, Greece
Distance from station: ΝΔ 149km
Ενημερώθηκε: 19/02/2018 21:20
NOT Current
Ασθενής βροχή, Συννεφιά
Ασθενής βροχή, Συννεφιά
 Ανεμος από varies
Ανεμος: varies 0 km/h
Θερμοκρασία: 8°C
Σημείο Δρόσου: 7°C
Υγρασία: 93%
Βαρόμετρο: 1012 hPa
Περίληψη: Ασθενής βροχή
Clouds: Συννεφιά
Visibility: 10 km
Cloud details: Σχεδόν νεφελώδης 1067 m
Συννεφιά 2438 m
2018/02/19 19:20 LGIO 191920Z /////KT 9999 -RA BKN035 OVC080 08/07 Q1012
LGBL - Nea Anchialos, Greece
Distance from station: ΝΝΑ 154km
Ενημερώθηκε: 20/02/2018 07:20
Light drizzle, Συννεφιά
Light drizzle, Συννεφιά
 Ανεμος από Α
Ανεμος: Α 26 km/h
Θερμοκρασία: 9°C
Wind Chill: 6°C
Σημείο Δρόσου: 7°C
Υγρασία: 87%
Βαρόμετρο: 1014 hPa
Περίληψη: Light Drizzle
Clouds: Συννεφιά
Visibility: 6 km
Cloud details: Μερικώς νεφελώδης 305 m
Συννεφιά 762 m
2018/02/20 05:20 LGBL 200520Z 10014KT 6000 -DZ SCT010 OVC025 09/07 Q1014
 
LGSK - Skiathos Island, Greece
Distance from station: ΝΑ 185km
Ενημερώθηκε: 19/02/2018 19:50
NOT Current
Συννεφιά
Συννεφιά
 Ανεμος από ΒΒΑ
Ανεμος: ΒΒΑ 15 km/h
Θερμοκρασία: 10°C
Wind Chill: 8°C
Σημείο Δρόσου: 6°C
Υγρασία: 76%
Βαρόμετρο: 1016 hPa
Clouds: Συννεφιά
Visibility: 10 km
Cloud details: Μερικώς νεφελώδης 244 m
Συννεφιά 762 m
2018/02/19 17:50 LGSK 191750Z 03008KT 9999 SCT008 OVC025 10/06 Q1016
LGKV - Kavala/Chrisoupo, Greece
Distance from station: ΑΒΑ 208km
Ενημερώθηκε: 20/02/2018 07:20
Σχεδόν νεφελώδης
Σχεδόν νεφελώδης
 Ανεμος από ΒΑ
Ανεμος: ΒΑ 13 km/h
Θερμοκρασία: 7°C
Wind Chill: 5°C
Σημείο Δρόσου: 2°C
Υγρασία: 71%
Βαρόμετρο: 1016 hPa
Clouds: Σχεδόν νεφελώδης
Visibility: 10 km
Cloud details: Μερικώς νεφελώδης 762 m
Σχεδόν νεφελώδης 2438 m
2018/02/20 05:20 LGKV 200520Z 05007KT 9999 SCT025 BKN080 07/02 Q1016
 
LGPZ - Preveza/Aktion, Greece
Distance from station: ΝΔ 217km
Ενημερώθηκε: 20/02/2018 07:20
Μερικώς νεφελώδης
Μερικώς νεφελώδης
 Ανεμος από calm
Ανεμος: Απνοια
Θερμοκρασία: 11°C
Σημείο Δρόσου: 7°C
Υγρασία: 77%
Βαρόμετρο: 1010 hPa
Clouds: Μερικώς νεφελώδης
Visibility: 10 km
Cloud details: Few Clouds 610 m
Μερικώς νεφελώδης 2134 m
2018/02/20 05:20 LGPZ 200520Z 00000KT 9999 FEW020 SCT070 11/07 Q1010
LGKR - Ioannis Kapodist, Greece
Distance from station: ΔΝΔ 219km
Ενημερώθηκε: 20/02/2018 07:20
Σχεδόν νεφελώδης
Σχεδόν νεφελώδης
 Ανεμος από ΑΒΑ
Ανεμος: ΑΒΑ 6 km/h
Θερμοκρασία: 11°C
Σημείο Δρόσου: 9°C
Υγρασία: 88%
Βαρόμετρο: 1009 hPa
Clouds: Σχεδόν νεφελώδης
Visibility: 10 km
Cloud details: Μερικώς νεφελώδης 1219 m
Σχεδόν νεφελώδης 2438 m
2018/02/20 05:20 LGKR 200520Z 07003KT 9999 SCT040 BKN080 11/09 Q1009 NOSIG
 
LGSY - Skiros, Greece
Distance from station: ΝΑ 261km
Ενημερώθηκε: 20/02/2018 06:50
Μερικώς νεφελώδης
Μερικώς νεφελώδης
 Ανεμος από ΒΒΑ
Ανεμος: ΒΒΑ 19 km/h
Θερμοκρασία: 10°C
Wind Chill: 7°C
Σημείο Δρόσου: 5°C
Υγρασία: 71%
Βαρόμετρο: 1012 hPa
Clouds: Μερικώς νεφελώδης
Visibility: 10 km
Cloud details: Μερικώς νεφελώδης 762 m
2018/02/20 04:50 LGSY 200450Z 03010KT 9999 SCT025 10/05 Q1012 BLU RMK OVC080
LGLM - Limnos Island Ar, Greece
Distance from station: ΑΝΑ 266km
Ενημερώθηκε: 20/02/2018 07:20
Σχεδόν νεφελώδης
Σχεδόν νεφελώδης
 Ανεμος από ΒΑ
Ανεμος: ΒΑ 24 km/h
Θερμοκρασία: 8°C
Wind Chill: 4°C
Σημείο Δρόσου: 6°C
Υγρασία: 87%
Βαρόμετρο: 1014 hPa
Clouds: Σχεδόν νεφελώδης
Visibility: 10 km
Cloud details: Few Clouds 366 m
Σχεδόν νεφελώδης 610 m
2018/02/20 05:20 LGLM 200520Z 05013KT 9999 FEW012 BKN020 08/06 Q1014
 
LGRX - Araxos (civ/Afb), Greece
Distance from station: ΝΝΔ 271km
Ενημερώθηκε: 20/02/2018 07:20
Συννεφιά
Συννεφιά
 Ανεμος από ΒΑ
Ανεμος: ΒΑ 7 km/h
Θερμοκρασία: 10°C
Wind Chill: 9°C
Σημείο Δρόσου: 9°C
Υγρασία: 94%
Βαρόμετρο: 1010 hPa
Clouds: Συννεφιά
Visibility: 10 km
Cloud details: Μερικώς νεφελώδης 762 m
Συννεφιά 1829 m
2018/02/20 05:20 LGRX 200520Z 04004KT 9999 SCT025 OVC060 10/09 Q1010
LGEL - Elefsis (hel-Afb, Greece
Distance from station: ΝΝΑ 297km
Ενημερώθηκε: 20/02/2018 07:20
Ασθενής βροχή, Συννεφιά
Ασθενής βροχή, Συννεφιά
 Ανεμος από calm
Ανεμος: Απνοια
Θερμοκρασία: 8°C
Σημείο Δρόσου: 8°C
Υγρασία: 100%
Βαρόμετρο: 1013 hPa
Περίληψη: Ασθενής βροχή
Clouds: Συννεφιά
Visibility: 5 km
Cloud details: Few Clouds 244 m
Σχεδόν νεφελώδης 762 m
Συννεφιά 2134 m
2018/02/20 05:20 LGEL 200520Z 00000KT 5000 -RA FEW008 BKN025 OVC070 08/08 Q1013
 
LGAD - Andravida (civ/A, Greece
Distance from station: ΝΝΔ 301km
Ενημερώθηκε: 20/02/2018 07:20
Σχεδόν νεφελώδης
Σχεδόν νεφελώδης
 Ανεμος από varies
Ανεμος: varies 6 km/h
Θερμοκρασία: 10°C
Σημείο Δρόσου: 8°C
Υγρασία: 88%
Βαρόμετρο: 1010 hPa
Clouds: Σχεδόν νεφελώδης
Visibility: 10 km
Cloud details: Μερικώς νεφελώδης 610 m
Σχεδόν νεφελώδης 2134 m
2018/02/20 05:20 LGAD 200520Z VRB03KT 9999 SCT020 BKN070 10/08 Q1010
LGKF - Kefallinia, Greece
Distance from station: ΝΝΔ 305km
Ενημερώθηκε: 19/02/2018 19:50
NOT Current
Light drizzle, Σχεδόν νεφελώδης
Light drizzle, Σχεδόν νεφελώδης
 Ανεμος από ΑΝΑ
Ανεμος: ΑΝΑ 13 km/h
Θερμοκρασία: 12°C
Σημείο Δρόσου: 12°C
Υγρασία: 100%
Βαρόμετρο: 1012 hPa
Περίληψη: Light Drizzle
Clouds: Σχεδόν νεφελώδης
Visibility: 10 km
Cloud details: Μερικώς νεφελώδης 366 m
Μερικώς νεφελώδης 549 m
Σχεδόν νεφελώδης 2134 m
2018/02/19 17:50 LGKF 191750Z 12007KT 9999 -DZ SCT012 SCT018 BKN070 12/12 Q1012